sensor_id;sensor_type;location;lat;lon;timestamp;temperature;humidity
25074;DHT22;13066;52.042;5.648;2022-08-06T00:02:35;17.20;79.30
25074;DHT22;13066;52.042;5.648;2022-08-06T00:05:04;17.10;79.60
25074;DHT22;13066;52.042;5.648;2022-08-06T00:07:33;17.10;79.60
25074;DHT22;13066;52.042;5.648;2022-08-06T00:10:14;17.10;79.90
25074;DHT22;13066;52.042;5.648;2022-08-06T00:12:44;17.10;80.10
25074;DHT22;13066;52.042;5.648;2022-08-06T00:15:16;17.10;80.30
25074;DHT22;13066;52.042;5.648;2022-08-06T00:18:05;17.10;80.40
25074;DHT22;13066;52.042;5.648;2022-08-06T00:20:34;17.00;80.60
25074;DHT22;13066;52.042;5.648;2022-08-06T00:23:08;17.00;80.70
25074;DHT22;13066;52.042;5.648;2022-08-06T00:25:43;16.90;80.80
25074;DHT22;13066;52.042;5.648;2022-08-06T00:28:19;16.90;81.00
25074;DHT22;13066;52.042;5.648;2022-08-06T00:30:59;16.90;81.30
25074;DHT22;13066;52.042;5.648;2022-08-06T00:33:37;16.90;81.40
25074;DHT22;13066;52.042;5.648;2022-08-06T00:36:22;16.90;81.50
25074;DHT22;13066;52.042;5.648;2022-08-06T00:38:55;16.90;81.70
25074;DHT22;13066;52.042;5.648;2022-08-06T00:41:25;16.80;81.80
25074;DHT22;13066;52.042;5.648;2022-08-06T00:44:08;16.80;81.90
25074;DHT22;13066;52.042;5.648;2022-08-06T00:46:39;16.80;82.00
25074;DHT22;13066;52.042;5.648;2022-08-06T00:49:08;16.80;82.20
25074;DHT22;13066;52.042;5.648;2022-08-06T00:51:38;16.80;82.30
25074;DHT22;13066;52.042;5.648;2022-08-06T00:54:17;16.80;82.40
25074;DHT22;13066;52.042;5.648;2022-08-06T00:57:02;16.70;82.60
25074;DHT22;13066;52.042;5.648;2022-08-06T00:59:36;16.70;82.90
25074;DHT22;13066;52.042;5.648;2022-08-06T01:02:06;16.70;83.00
25074;DHT22;13066;52.042;5.648;2022-08-06T01:04:35;16.70;83.10
25074;DHT22;13066;52.042;5.648;2022-08-06T01:07:04;16.70;83.10
25074;DHT22;13066;52.042;5.648;2022-08-06T01:09:36;16.70;83.40
25074;DHT22;13066;52.042;5.648;2022-08-06T01:12:24;16.70;83.60
25074;DHT22;13066;52.042;5.648;2022-08-06T01:15:01;16.70;84.00
25074;DHT22;13066;52.042;5.648;2022-08-06T01:17:36;16.60;84.40
25074;DHT22;13066;52.042;5.648;2022-08-06T01:20:14;16.60;84.90
25074;DHT22;13066;52.042;5.648;2022-08-06T01:23:28;16.60;85.10
25074;DHT22;13066;52.042;5.648;2022-08-06T01:26:21;16.60;85.10
25074;DHT22;13066;52.042;5.648;2022-08-06T01:28:56;16.60;85.10
25074;DHT22;13066;52.042;5.648;2022-08-06T01:31:32;16.50;84.80
25074;DHT22;13066;52.042;5.648;2022-08-06T01:34:09;16.50;85.50
25074;DHT22;13066;52.042;5.648;2022-08-06T01:36:42;16.40;85.70
25074;DHT22;13066;52.042;5.648;2022-08-06T01:39:17;16.40;85.80
25074;DHT22;13066;52.042;5.648;2022-08-06T01:41:52;16.40;85.90
25074;DHT22;13066;52.042;5.648;2022-08-06T01:44:32;16.40;86.10
25074;DHT22;13066;52.042;5.648;2022-08-06T01:47:06;16.40;86.10
25074;DHT22;13066;52.042;5.648;2022-08-06T01:49:51;16.40;86.30
25074;DHT22;13066;52.042;5.648;2022-08-06T01:52:32;16.40;86.60
25074;DHT22;13066;52.042;5.648;2022-08-06T01:55:08;16.40;86.70
25074;DHT22;13066;52.042;5.648;2022-08-06T01:57:42;16.30;86.80
25074;DHT22;13066;52.042;5.648;2022-08-06T02:00:36;16.30;86.90
25074;DHT22;13066;52.042;5.648;2022-08-06T02:03:16;16.30;87.00
25074;DHT22;13066;52.042;5.648;2022-08-06T02:05:49;16.30;87.20
25074;DHT22;13066;52.042;5.648;2022-08-06T02:08:21;16.30;87.20
25074;DHT22;13066;52.042;5.648;2022-08-06T02:11:07;16.30;87.40
25074;DHT22;13066;52.042;5.648;2022-08-06T02:13:58;16.30;87.60
25074;DHT22;13066;52.042;5.648;2022-08-06T02:16:32;16.20;87.80
25074;DHT22;13066;52.042;5.648;2022-08-06T02:19:08;16.20;87.70
25074;DHT22;13066;52.042;5.648;2022-08-06T02:21:42;16.20;87.70
25074;DHT22;13066;52.042;5.648;2022-08-06T02:24:19;16.20;87.90
25074;DHT22;13066;52.042;5.648;2022-08-06T02:26:52;16.10;88.20
25074;DHT22;13066;52.042;5.648;2022-08-06T02:29:21;16.10;88.40
25074;DHT22;13066;52.042;5.648;2022-08-06T02:31:53;16.10;88.60
25074;DHT22;13066;52.042;5.648;2022-08-06T02:34:27;16.10;88.70
25074;DHT22;13066;52.042;5.648;2022-08-06T02:37:03;16.10;88.60
25074;DHT22;13066;52.042;5.648;2022-08-06T02:39:37;16.10;88.90
25074;DHT22;13066;52.042;5.648;2022-08-06T02:42:21;16.00;88.90
25074;DHT22;13066;52.042;5.648;2022-08-06T02:44:59;16.00;89.10
25074;DHT22;13066;52.042;5.648;2022-08-06T02:47:33;16.00;89.10
25074;DHT22;13066;52.042;5.648;2022-08-06T02:50:27;16.00;89.20
25074;DHT22;13066;52.042;5.648;2022-08-06T02:53:04;16.00;89.00
25074;DHT22;13066;52.042;5.648;2022-08-06T02:55:54;16.00;89.50
25074;DHT22;13066;52.042;5.648;2022-08-06T02:58:32;16.00;90.10
25074;DHT22;13066;52.042;5.648;2022-08-06T03:01:08;16.00;89.60
25074;DHT22;13066;52.042;5.648;2022-08-06T03:03:39;15.90;89.60
25074;DHT22;13066;52.042;5.648;2022-08-06T03:06:26;15.90;89.80
25074;DHT22;13066;52.042;5.648;2022-08-06T03:08:57;15.90;90.00
25074;DHT22;13066;52.042;5.648;2022-08-06T03:11:28;15.90;90.00
25074;DHT22;13066;52.042;5.648;2022-08-06T03:13:59;15.90;90.10
25074;DHT22;13066;52.042;5.648;2022-08-06T03:16:48;15.90;90.20
25074;DHT22;13066;52.042;5.648;2022-08-06T03:19:19;15.90;90.20
25074;DHT22;13066;52.042;5.648;2022-08-06T03:22:09;15.90;90.10
25074;DHT22;13066;52.042;5.648;2022-08-06T03:24:59;15.80;90.10
25074;DHT22;13066;52.042;5.648;2022-08-06T03:27:29;15.80;90.20
25074;DHT22;13066;52.042;5.648;2022-08-06T03:30:12;15.80;90.40
25074;DHT22;13066;52.042;5.648;2022-08-06T03:33:00;15.80;90.50
25074;DHT22;13066;52.042;5.648;2022-08-06T03:35:52;15.80;90.50
25074;DHT22;13066;52.042;5.648;2022-08-06T03:38:21;15.80;90.50
25074;DHT22;13066;52.042;5.648;2022-08-06T03:40:56;15.80;90.50
25074;DHT22;13066;52.042;5.648;2022-08-06T03:43:27;15.70;90.50
25074;DHT22;13066;52.042;5.648;2022-08-06T03:46:19;15.70;90.50
25074;DHT22;13066;52.042;5.648;2022-08-06T03:48:49;15.70;90.60
25074;DHT22;13066;52.042;5.648;2022-08-06T03:51:21;15.70;90.60
25074;DHT22;13066;52.042;5.648;2022-08-06T03:54:11;15.60;90.60
25074;DHT22;13066;52.042;5.648;2022-08-06T03:56:55;15.60;90.70
25074;DHT22;13066;52.042;5.648;2022-08-06T03:59:26;15.60;90.70
25074;DHT22;13066;52.042;5.648;2022-08-06T04:02:04;15.60;90.60
25074;DHT22;13066;52.042;5.648;2022-08-06T04:04:50;15.50;90.60
25074;DHT22;13066;52.042;5.648;2022-08-06T04:07:20;15.50;90.70
25074;DHT22;13066;52.042;5.648;2022-08-06T04:10:09;15.50;90.70
25074;DHT22;13066;52.042;5.648;2022-08-06T04:12:38;15.50;90.80
25074;DHT22;13066;52.042;5.648;2022-08-06T04:15:27;15.50;90.90
25074;DHT22;13066;52.042;5.648;2022-08-06T04:17:56;15.40;90.90
25074;DHT22;13066;52.042;5.648;2022-08-06T04:20:25;15.40;91.00
25074;DHT22;13066;52.042;5.648;2022-08-06T04:23:10;15.40;91.10
25074;DHT22;13066;52.042;5.648;2022-08-06T04:25:42;15.40;91.20
25074;DHT22;13066;52.042;5.648;2022-08-06T04:28:15;15.30;91.20
25074;DHT22;13066;52.042;5.648;2022-08-06T04:30:46;15.30;91.30
25074;DHT22;13066;52.042;5.648;2022-08-06T04:33:20;15.30;91.40
25074;DHT22;13066;52.042;5.648;2022-08-06T04:36:02;15.30;91.50
25074;DHT22;13066;52.042;5.648;2022-08-06T04:38:52;15.30;91.50
25074;DHT22;13066;52.042;5.648;2022-08-06T04:41:23;15.20;91.60
25074;DHT22;13066;52.042;5.648;2022-08-06T04:43:57;15.30;91.60
25074;DHT22;13066;52.042;5.648;2022-08-06T04:46:28;15.30;91.70
25074;DHT22;13066;52.042;5.648;2022-08-06T04:48:57;15.30;91.70
25074;DHT22;13066;52.042;5.648;2022-08-06T04:51:27;15.30;91.70
25074;DHT22;13066;52.042;5.648;2022-08-06T04:54:16;15.30;91.80
25074;DHT22;13066;52.042;5.648;2022-08-06T04:56:53;15.20;91.80
25074;DHT22;13066;52.042;5.648;2022-08-06T04:59:24;15.20;92.30
25074;DHT22;13066;52.042;5.648;2022-08-06T05:02:12;15.20;92.10
25074;DHT22;13066;52.042;5.648;2022-08-06T05:04:42;15.20;92.20
25074;DHT22;13066;52.042;5.648;2022-08-06T05:07:15;15.20;92.30
25074;DHT22;13066;52.042;5.648;2022-08-06T05:09:48;15.20;92.40
25074;DHT22;13066;52.042;5.648;2022-08-06T05:12:25;15.20;92.50
25074;DHT22;13066;52.042;5.648;2022-08-06T05:14:55;15.20;92.70
25074;DHT22;13066;52.042;5.648;2022-08-06T05:17:31;15.30;92.90
25074;DHT22;13066;52.042;5.648;2022-08-06T05:20:02;15.30;93.10
25074;DHT22;13066;52.042;5.648;2022-08-06T05:22:39;15.20;93.00
25074;DHT22;13066;52.042;5.648;2022-08-06T05:25:28;15.20;93.40
25074;DHT22;13066;52.042;5.648;2022-08-06T05:28:02;15.20;93.50
25074;DHT22;13066;52.042;5.648;2022-08-06T05:30:44;15.20;93.60
25074;DHT22;13066;52.042;5.648;2022-08-06T05:33:22;15.30;93.70
25074;DHT22;13066;52.042;5.648;2022-08-06T05:35:55;15.40;93.80
25074;DHT22;13066;52.042;5.648;2022-08-06T05:38:29;15.40;93.80
25074;DHT22;13066;52.042;5.648;2022-08-06T05:41:05;15.50;93.70
25074;DHT22;13066;52.042;5.648;2022-08-06T05:43:35;15.50;93.70
25074;DHT22;13066;52.042;5.648;2022-08-06T05:46:24;15.50;94.00
25074;DHT22;13066;52.042;5.648;2022-08-06T05:49:00;15.50;94.00
25074;DHT22;13066;52.042;5.648;2022-08-06T05:51:52;15.60;94.10
25074;DHT22;13066;52.042;5.648;2022-08-06T05:54:30;15.70;94.10
25074;DHT22;13066;52.042;5.648;2022-08-06T05:57:05;15.70;94.20
25074;DHT22;13066;52.042;5.648;2022-08-06T05:59:39;15.70;94.20
25074;DHT22;13066;52.042;5.648;2022-08-06T06:02:27;15.80;94.20
25074;DHT22;13066;52.042;5.648;2022-08-06T06:04:58;15.90;94.20
25074;DHT22;13066;52.042;5.648;2022-08-06T06:07:47;15.90;94.10
25074;DHT22;13066;52.042;5.648;2022-08-06T06:10:37;15.90;94.00
25074;DHT22;13066;52.042;5.648;2022-08-06T06:13:22;16.00;93.80
25074;DHT22;13066;52.042;5.648;2022-08-06T06:16:18;16.00;93.80
25074;DHT22;13066;52.042;5.648;2022-08-06T06:19:13;16.10;93.70
25074;DHT22;13066;52.042;5.648;2022-08-06T06:21:58;16.10;93.60
25074;DHT22;13066;52.042;5.648;2022-08-06T06:24:31;16.10;93.50
25074;DHT22;13066;52.042;5.648;2022-08-06T06:27:05;16.20;93.40
25074;DHT22;13066;52.042;5.648;2022-08-06T06:30:00;16.30;93.40
25074;DHT22;13066;52.042;5.648;2022-08-06T06:32:41;16.30;93.40
25074;DHT22;13066;52.042;5.648;2022-08-06T06:35:29;16.30;93.40
25074;DHT22;13066;52.042;5.648;2022-08-06T06:38:11;16.40;93.30
25074;DHT22;13066;52.042;5.648;2022-08-06T06:40:49;16.40;93.20
25074;DHT22;13066;52.042;5.648;2022-08-06T06:43:44;16.50;93.10
25074;DHT22;13066;52.042;5.648;2022-08-06T06:46:25;16.60;93.20
25074;DHT22;13066;52.042;5.648;2022-08-06T06:49:09;16.60;93.10
25074;DHT22;13066;52.042;5.648;2022-08-06T06:52:05;16.70;93.20
25074;DHT22;13066;52.042;5.648;2022-08-06T06:54:40;16.70;93.20
25074;DHT22;13066;52.042;5.648;2022-08-06T06:57:15;16.80;93.20
25074;DHT22;13066;52.042;5.648;2022-08-06T06:59:51;16.90;93.00
25074;DHT22;13066;52.042;5.648;2022-08-06T07:02:45;16.90;92.90
25074;DHT22;13066;52.042;5.648;2022-08-06T07:05:16;17.00;92.90
25074;DHT22;13066;52.042;5.648;2022-08-06T07:08:05;17.00;92.70
25074;DHT22;13066;52.042;5.648;2022-08-06T07:10:38;17.10;92.60
25074;DHT22;13066;52.042;5.648;2022-08-06T07:13:09;17.20;92.50
25074;DHT22;13066;52.042;5.648;2022-08-06T07:15:42;17.20;92.30
25074;DHT22;13066;52.042;5.648;2022-08-06T07:18:21;17.20;92.20
25074;DHT22;13066;52.042;5.648;2022-08-06T07:21:01;17.30;92.10
25074;DHT22;13066;52.042;5.648;2022-08-06T07:23:30;17.30;92.10
25074;DHT22;13066;52.042;5.648;2022-08-06T07:26:21;17.40;91.80
25074;DHT22;13066;52.042;5.648;2022-08-06T07:28:52;17.40;91.50
25074;DHT22;13066;52.042;5.648;2022-08-06T07:31:30;17.50;91.30
25074;DHT22;13066;52.042;5.648;2022-08-06T07:34:04;17.50;91.00
25074;DHT22;13066;52.042;5.648;2022-08-06T07:36:37;17.60;90.80
25074;DHT22;13066;52.042;5.648;2022-08-06T07:39:08;17.60;90.70
25074;DHT22;13066;52.042;5.648;2022-08-06T07:41:42;17.70;90.70
25074;DHT22;13066;52.042;5.648;2022-08-06T07:44:34;17.70;90.40
25074;DHT22;13066;52.042;5.648;2022-08-06T07:47:26;17.80;90.00
25074;DHT22;13066;52.042;5.648;2022-08-06T07:50:16;17.80;88.50
25074;DHT22;13066;52.042;5.648;2022-08-06T07:52:51;17.90;87.30
25074;DHT22;13066;52.042;5.648;2022-08-06T07:55:21;17.90;86.70
25074;DHT22;13066;52.042;5.648;2022-08-06T07:57:57;17.90;85.60
25074;DHT22;13066;52.042;5.648;2022-08-06T08:00:30;18.00;85.40
25074;DHT22;13066;52.042;5.648;2022-08-06T08:03:04;18.00;85.40
25074;DHT22;13066;52.042;5.648;2022-08-06T08:06:12;18.10;85.50
25074;DHT22;13066;52.042;5.648;2022-08-06T08:08:53;18.10;85.40
25074;DHT22;13066;52.042;5.648;2022-08-06T08:11:23;18.20;84.30
25074;DHT22;13066;52.042;5.648;2022-08-06T08:14:16;18.20;83.60
25074;DHT22;13066;52.042;5.648;2022-08-06T08:16:48;18.30;83.10
25074;DHT22;13066;52.042;5.648;2022-08-06T08:19:24;18.30;82.90
25074;DHT22;13066;52.042;5.648;2022-08-06T08:22:05;18.40;81.70
25074;DHT22;13066;52.042;5.648;2022-08-06T08:24:36;18.40;81.20
25074;DHT22;13066;52.042;5.648;2022-08-06T08:27:06;18.40;81.00
25074;DHT22;13066;52.042;5.648;2022-08-06T08:29:49;18.50;80.90
25074;DHT22;13066;52.042;5.648;2022-08-06T08:32:23;18.50;80.50
25074;DHT22;13066;52.042;5.648;2022-08-06T08:34:52;18.60;80.60
25074;DHT22;13066;52.042;5.648;2022-08-06T08:37:24;18.70;80.80
25074;DHT22;13066;52.042;5.648;2022-08-06T08:39:58;18.70;80.50
25074;DHT22;13066;52.042;5.648;2022-08-06T08:42:30;18.80;80.00
25074;DHT22;13066;52.042;5.648;2022-08-06T08:45:02;18.80;80.20
25074;DHT22;13066;52.042;5.648;2022-08-06T08:47:35;18.90;79.80
25074;DHT22;13066;52.042;5.648;2022-08-06T08:50:29;19.00;78.80
25074;DHT22;13066;52.042;5.648;2022-08-06T08:53:03;19.00;78.00
25074;DHT22;13066;52.042;5.648;2022-08-06T08:55:31;19.00;76.50
25074;DHT22;13066;52.042;5.648;2022-08-06T08:58:19;19.00;75.90
25074;DHT22;13066;52.042;5.648;2022-08-06T09:01:09;19.10;76.20
25074;DHT22;13066;52.042;5.648;2022-08-06T09:03:57;19.10;76.00
25074;DHT22;13066;52.042;5.648;2022-08-06T09:06:28;19.20;75.70
25074;DHT22;13066;52.042;5.648;2022-08-06T09:09:05;19.20;75.90
25074;DHT22;13066;52.042;5.648;2022-08-06T09:11:41;19.30;75.90
25074;DHT22;13066;52.042;5.648;2022-08-06T09:14:30;19.30;75.00
25074;DHT22;13066;52.042;5.648;2022-08-06T09:17:00;19.40;74.70
25074;DHT22;13066;52.042;5.648;2022-08-06T09:19:29;19.40;75.20
25074;DHT22;13066;52.042;5.648;2022-08-06T09:22:05;19.50;75.40
25074;DHT22;13066;52.042;5.648;2022-08-06T09:24:37;19.60;76.10
25074;DHT22;13066;52.042;5.648;2022-08-06T09:27:07;19.70;75.40
25074;DHT22;13066;52.042;5.648;2022-08-06T09:29:58;19.80;75.20
25074;DHT22;13066;52.042;5.648;2022-08-06T09:32:46;19.90;75.40
25074;DHT22;13066;52.042;5.648;2022-08-06T09:35:23;20.00;73.90
25074;DHT22;13066;52.042;5.648;2022-08-06T09:38:13;19.90;73.10
25074;DHT22;13066;52.042;5.648;2022-08-06T09:41:02;19.90;72.20
25074;DHT22;13066;52.042;5.648;2022-08-06T09:43:33;19.90;71.80
25074;DHT22;13066;52.042;5.648;2022-08-06T09:46:35;19.90;72.10
25074;DHT22;13066;52.042;5.648;2022-08-06T09:49:04;19.90;71.60
25074;DHT22;13066;52.042;5.648;2022-08-06T09:52:10;19.90;71.00
25074;DHT22;13066;52.042;5.648;2022-08-06T09:54:40;20.00;70.00
25074;DHT22;13066;52.042;5.648;2022-08-06T09:57:09;20.00;70.10
25074;DHT22;13066;52.042;5.648;2022-08-06T09:59:42;20.00;70.20
25074;DHT22;13066;52.042;5.648;2022-08-06T10:02:17;20.10;68.60
25074;DHT22;13066;52.042;5.648;2022-08-06T10:05:06;20.20;68.10
25074;DHT22;13066;52.042;5.648;2022-08-06T10:07:46;20.20;65.80
25074;DHT22;13066;52.042;5.648;2022-08-06T10:13:14;20.10;64.20
25074;DHT22;13066;52.042;5.648;2022-08-06T10:15:46;20.20;64.00
25074;DHT22;13066;52.042;5.648;2022-08-06T10:18:33;20.20;64.00
25074;DHT22;13066;52.042;5.648;2022-08-06T10:21:24;20.20;64.90
25074;DHT22;13066;52.042;5.648;2022-08-06T10:24:08;20.30;64.30
25074;DHT22;13066;52.042;5.648;2022-08-06T10:26:38;20.30;63.80
25074;DHT22;13066;52.042;5.648;2022-08-06T10:29:11;20.40;63.40
25074;DHT22;13066;52.042;5.648;2022-08-06T10:31:41;20.50;63.50
25074;DHT22;13066;52.042;5.648;2022-08-06T10:34:16;20.50;63.80
25074;DHT22;13066;52.042;5.648;2022-08-06T10:36:59;20.50;64.80
25074;DHT22;13066;52.042;5.648;2022-08-06T10:39:40;20.60;63.90
25074;DHT22;13066;52.042;5.648;2022-08-06T10:42:30;20.60;62.30
25074;DHT22;13066;52.042;5.648;2022-08-06T10:45:01;20.60;61.40
25074;DHT22;13066;52.042;5.648;2022-08-06T10:47:39;20.70;62.30
25074;DHT22;13066;52.042;5.648;2022-08-06T10:50:27;20.70;61.50
25074;DHT22;13066;52.042;5.648;2022-08-06T10:53:11;20.70;59.90
25074;DHT22;13066;52.042;5.648;2022-08-06T10:56:00;20.70;59.90
25074;DHT22;13066;52.042;5.648;2022-08-06T10:58:31;20.80;60.20
25074;DHT22;13066;52.042;5.648;2022-08-06T11:01:05;20.90;60.30
25074;DHT22;13066;52.042;5.648;2022-08-06T11:03:50;21.00;61.30
25074;DHT22;13066;52.042;5.648;2022-08-06T11:06:51;21.10;61.20
25074;DHT22;13066;52.042;5.648;2022-08-06T11:09:36;21.10;61.60
25074;DHT22;13066;52.042;5.648;2022-08-06T11:12:46;21.10;60.60
25074;DHT22;13066;52.042;5.648;2022-08-06T11:15:17;21.10;61.10
25074;DHT22;13066;52.042;5.648;2022-08-06T11:17:51;21.10;59.40
25074;DHT22;13066;52.042;5.648;2022-08-06T11:20:41;21.20;59.20
25074;DHT22;13066;52.042;5.648;2022-08-06T11:23:25;21.20;58.80
25074;DHT22;13066;52.042;5.648;2022-08-06T11:26:32;21.20;58.40
25074;DHT22;13066;52.042;5.648;2022-08-06T11:29:05;21.20;58.50
25074;DHT22;13066;52.042;5.648;2022-08-06T11:31:42;21.30;58.10
25074;DHT22;13066;52.042;5.648;2022-08-06T11:34:41;21.30;58.70
25074;DHT22;13066;52.042;5.648;2022-08-06T11:37:44;21.40;58.80
25074;DHT22;13066;52.042;5.648;2022-08-06T11:40:52;21.50;58.50
25074;DHT22;13066;52.042;5.648;2022-08-06T11:44:03;21.50;57.60
25074;DHT22;13066;52.042;5.648;2022-08-06T11:46:34;21.50;57.00
25074;DHT22;13066;52.042;5.648;2022-08-06T11:49:20;21.50;56.40
25074;DHT22;13066;52.042;5.648;2022-08-06T11:51:54;21.60;55.50
25074;DHT22;13066;52.042;5.648;2022-08-06T11:54:34;21.70;56.00
25074;DHT22;13066;52.042;5.648;2022-08-06T11:57:18;21.70;56.50
25074;DHT22;13066;52.042;5.648;2022-08-06T12:00:17;21.80;56.50
25074;DHT22;13066;52.042;5.648;2022-08-06T12:02:56;21.70;56.10
25074;DHT22;13066;52.042;5.648;2022-08-06T12:05:39;21.70;55.30
25074;DHT22;13066;52.042;5.648;2022-08-06T12:08:25;21.70;56.00
25074;DHT22;13066;52.042;5.648;2022-08-06T12:11:28;21.70;55.60
25074;DHT22;13066;52.042;5.648;2022-08-06T12:14:03;21.70;54.60
25074;DHT22;13066;52.042;5.648;2022-08-06T12:16:52;21.70;54.50
25074;DHT22;13066;52.042;5.648;2022-08-06T12:19:28;21.70;53.00
25074;DHT22;13066;52.042;5.648;2022-08-06T12:21:58;21.80;52.40
25074;DHT22;13066;52.042;5.648;2022-08-06T12:24:29;21.80;52.40
25074;DHT22;13066;52.042;5.648;2022-08-06T12:27:19;21.80;52.10
25074;DHT22;13066;52.042;5.648;2022-08-06T12:30:00;21.90;52.80
25074;DHT22;13066;52.042;5.648;2022-08-06T12:32:30;22.00;53.10
25074;DHT22;13066;52.042;5.648;2022-08-06T12:35:02;22.00;53.40
25074;DHT22;13066;52.042;5.648;2022-08-06T12:37:34;22.00;52.60
25074;DHT22;13066;52.042;5.648;2022-08-06T12:40:16;22.10;52.30
25074;DHT22;13066;52.042;5.648;2022-08-06T12:43:10;22.10;51.20
25074;DHT22;13066;52.042;5.648;2022-08-06T12:45:42;22.20;50.60
25074;DHT22;13066;52.042;5.648;2022-08-06T12:48:31;22.20;50.60
25074;DHT22;13066;52.042;5.648;2022-08-06T12:51:05;22.30;50.70
25074;DHT22;13066;52.042;5.648;2022-08-06T12:53:40;22.30;50.40
25074;DHT22;13066;52.042;5.648;2022-08-06T12:56:16;22.40;50.90
25074;DHT22;13066;52.042;5.648;2022-08-06T12:59:02;22.40;50.70
25074;DHT22;13066;52.042;5.648;2022-08-06T13:01:34;22.50;51.00
25074;DHT22;13066;52.042;5.648;2022-08-06T13:04:23;22.50;50.40
25074;DHT22;13066;52.042;5.648;2022-08-06T13:06:59;22.60;50.30
25074;DHT22;13066;52.042;5.648;2022-08-06T13:09:29;22.60;50.50
25074;DHT22;13066;52.042;5.648;2022-08-06T13:12:13;22.80;51.00
25074;DHT22;13066;52.042;5.648;2022-08-06T13:14:57;22.90;51.20
25074;DHT22;13066;52.042;5.648;2022-08-06T13:18:00;23.00;51.30
25074;DHT22;13066;52.042;5.648;2022-08-06T13:20:40;23.10;51.00
25074;DHT22;13066;52.042;5.648;2022-08-06T13:23:10;23.10;50.20
25074;DHT22;13066;52.042;5.648;2022-08-06T13:25:50;23.10;49.80
25074;DHT22;13066;52.042;5.648;2022-08-06T13:28:22;23.20;49.40
25074;DHT22;13066;52.042;5.648;2022-08-06T13:30:55;23.10;49.20
25074;DHT22;13066;52.042;5.648;2022-08-06T13:33:27;23.10;48.80
25074;DHT22;13066;52.042;5.648;2022-08-06T13:36:05;23.20;49.70
25074;DHT22;13066;52.042;5.648;2022-08-06T13:38:36;23.20;50.80
25074;DHT22;13066;52.042;5.648;2022-08-06T13:41:08;23.10;51.30
25074;DHT22;13066;52.042;5.648;2022-08-06T13:43:41;23.00;51.40
25074;DHT22;13066;52.042;5.648;2022-08-06T13:46:22;23.00;51.60
25074;DHT22;13066;52.042;5.648;2022-08-06T13:48:56;22.90;51.80
25074;DHT22;13066;52.042;5.648;2022-08-06T13:51:28;22.90;52.40
25074;DHT22;13066;52.042;5.648;2022-08-06T13:54:02;23.00;52.30
25074;DHT22;13066;52.042;5.648;2022-08-06T13:56:45;23.00;52.20
25074;DHT22;13066;52.042;5.648;2022-08-06T13:59:17;23.00;51.60
25074;DHT22;13066;52.042;5.648;2022-08-06T14:01:47;23.10;51.90
25074;DHT22;13066;52.042;5.648;2022-08-06T14:04:20;23.20;51.00
25074;DHT22;13066;52.042;5.648;2022-08-06T14:06:53;23.20;51.10
25074;DHT22;13066;52.042;5.648;2022-08-06T14:09:26;23.30;50.40
25074;DHT22;13066;52.042;5.648;2022-08-06T14:12:14;23.30;50.70
25074;DHT22;13066;52.042;5.648;2022-08-06T14:14:44;23.40;50.20
25074;DHT22;13066;52.042;5.648;2022-08-06T14:17:14;23.50;49.30
25074;DHT22;13066;52.042;5.648;2022-08-06T14:19:42;23.60;49.30
25074;DHT22;13066;52.042;5.648;2022-08-06T14:22:30;23.60;49.80
25074;DHT22;13066;52.042;5.648;2022-08-06T14:25:07;23.70;50.20
25074;DHT22;13066;52.042;5.648;2022-08-06T14:27:36;23.80;50.40
25074;DHT22;13066;52.042;5.648;2022-08-06T14:30:13;23.90;50.40
25074;DHT22;13066;52.042;5.648;2022-08-06T14:32:57;23.90;50.40
25074;DHT22;13066;52.042;5.648;2022-08-06T14:35:36;24.00;49.80
25074;DHT22;13066;52.042;5.648;2022-08-06T14:38:18;24.10;49.70
25074;DHT22;13066;52.042;5.648;2022-08-06T14:40:47;24.20;49.00
25074;DHT22;13066;52.042;5.648;2022-08-06T14:43:36;24.30;49.10
25074;DHT22;13066;52.042;5.648;2022-08-06T14:46:28;24.50;49.20
25074;DHT22;13066;52.042;5.648;2022-08-06T14:48:58;24.70;49.00
25074;DHT22;13066;52.042;5.648;2022-08-06T14:51:35;24.80;48.70
25074;DHT22;13066;52.042;5.648;2022-08-06T14:54:23;24.80;47.80
25074;DHT22;13066;52.042;5.648;2022-08-06T14:56:58;25.00;47.70
25074;DHT22;13066;52.042;5.648;2022-08-06T14:59:40;25.20;47.10
25074;DHT22;13066;52.042;5.648;2022-08-06T15:02:20;25.40;46.30
25074;DHT22;13066;52.042;5.648;2022-08-06T15:04:51;25.50;46.10
25074;DHT22;13066;52.042;5.648;2022-08-06T15:07:19;25.70;45.70
25074;DHT22;13066;52.042;5.648;2022-08-06T15:09:52;25.90;45.10
25074;DHT22;13066;52.042;5.648;2022-08-06T15:12:41;26.00;44.40
25074;DHT22;13066;52.042;5.648;2022-08-06T15:15:17;26.10;44.00
25074;DHT22;13066;52.042;5.648;2022-08-06T15:18:03;26.20;43.90
25074;DHT22;13066;52.042;5.648;2022-08-06T15:20:52;26.30;43.60
25074;DHT22;13066;52.042;5.648;2022-08-06T15:23:20;26.40;43.00
25074;DHT22;13066;52.042;5.648;2022-08-06T15:25:56;26.50;42.50
25074;DHT22;13066;52.042;5.648;2022-08-06T15:28:45;26.50;42.50
25074;DHT22;13066;52.042;5.648;2022-08-06T15:31:15;26.50;42.60
25074;DHT22;13066;52.042;5.648;2022-08-06T15:33:47;26.50;42.80
25074;DHT22;13066;52.042;5.648;2022-08-06T15:36:15;26.40;42.20
25074;DHT22;13066;52.042;5.648;2022-08-06T15:38:45;26.40;42.30
25074;DHT22;13066;52.042;5.648;2022-08-06T15:41:14;26.50;42.40
25074;DHT22;13066;52.042;5.648;2022-08-06T15:43:43;26.50;42.10
25074;DHT22;13066;52.042;5.648;2022-08-06T15:46:18;26.40;42.00
25074;DHT22;13066;52.042;5.648;2022-08-06T15:48:56;26.40;42.00
25074;DHT22;13066;52.042;5.648;2022-08-06T15:51:29;26.40;42.30
25074;DHT22;13066;52.042;5.648;2022-08-06T15:53:58;26.30;41.70
25074;DHT22;13066;52.042;5.648;2022-08-06T15:56:27;26.10;41.60
25074;DHT22;13066;52.042;5.648;2022-08-06T15:59:00;26.00;41.80
25074;DHT22;13066;52.042;5.648;2022-08-06T16:01:38;26.00;41.80
25074;DHT22;13066;52.042;5.648;2022-08-06T16:04:28;25.90;41.80
25074;DHT22;13066;52.042;5.648;2022-08-06T16:07:03;25.80;42.00
25074;DHT22;13066;52.042;5.648;2022-08-06T16:09:32;25.70;42.50
25074;DHT22;13066;52.042;5.648;2022-08-06T16:12:20;25.70;42.60
25074;DHT22;13066;52.042;5.648;2022-08-06T16:14:48;25.60;43.00
25074;DHT22;13066;52.042;5.648;2022-08-06T16:17:24;25.60;43.10
25074;DHT22;13066;52.042;5.648;2022-08-06T16:20:15;25.60;43.20
25074;DHT22;13066;52.042;5.648;2022-08-06T16:22:49;25.50;43.20
25074;DHT22;13066;52.042;5.648;2022-08-06T16:25:19;25.40;43.30
25074;DHT22;13066;52.042;5.648;2022-08-06T16:27:49;25.40;43.40
25074;DHT22;13066;52.042;5.648;2022-08-06T16:30:19;25.30;44.10
25074;DHT22;13066;52.042;5.648;2022-08-06T16:32:48;25.30;43.40
25074;DHT22;13066;52.042;5.648;2022-08-06T16:35:18;25.30;43.60
25074;DHT22;13066;52.042;5.648;2022-08-06T16:37:48;25.20;43.90
25074;DHT22;13066;52.042;5.648;2022-08-06T16:40:18;25.20;44.50
25074;DHT22;13066;52.042;5.648;2022-08-06T16:42:47;25.10;44.70
25074;DHT22;13066;52.042;5.648;2022-08-06T16:45:16;25.10;44.70